sensor_id;sensor_type;location;lat;lon;timestamp;P1;durP1;ratioP1;P2;durP2;ratioP2
28086;SDS011;15392;48.912;8.380;2023-01-29T00:01:33;1.27;;;1.27;;
28086;SDS011;15392;48.912;8.380;2023-01-29T00:03:59;1.48;;;1.48;;
28086;SDS011;15392;48.912;8.380;2023-01-29T00:06:25;1.33;;;1.33;;
28086;SDS011;15392;48.912;8.380;2023-01-29T00:08:50;1.17;;;1.17;;
28086;SDS011;15392;48.912;8.380;2023-01-29T00:11:16;1.33;;;1.33;;
28086;SDS011;15392;48.912;8.380;2023-01-29T00:13:42;1.60;;;1.50;;
28086;SDS011;15392;48.912;8.380;2023-01-29T00:16:08;1.38;;;1.38;;
28086;SDS011;15392;48.912;8.380;2023-01-29T00:18:38;1.20;;;1.20;;
28086;SDS011;15392;48.912;8.380;2023-01-29T00:21:09;1.50;;;1.50;;
28086;SDS011;15392;48.912;8.380;2023-01-29T00:23:40;1.40;;;1.40;;
28086;SDS011;15392;48.912;8.380;2023-01-29T00:26:06;1.40;;;1.40;;
28086;SDS011;15392;48.912;8.380;2023-01-29T00:28:32;1.45;;;1.45;;
28086;SDS011;15392;48.912;8.380;2023-01-29T00:31:05;1.38;;;1.38;;
28086;SDS011;15392;48.912;8.380;2023-01-29T00:33:45;1.20;;;1.20;;
28086;SDS011;15392;48.912;8.380;2023-01-29T00:36:12;1.35;;;1.35;;
28086;SDS011;15392;48.912;8.380;2023-01-29T00:38:40;1.40;;;1.40;;
28086;SDS011;15392;48.912;8.380;2023-01-29T00:41:07;1.33;;;1.33;;
28086;SDS011;15392;48.912;8.380;2023-01-29T00:43:51;1.70;;;1.70;;
28086;SDS011;15392;48.912;8.380;2023-01-29T00:46:36;1.55;;;1.55;;
28086;SDS011;15392;48.912;8.380;2023-01-29T00:49:02;2.10;;;2.00;;
28086;SDS011;15392;48.912;8.380;2023-01-29T00:51:30;1.60;;;1.60;;
28086;SDS011;15392;48.912;8.380;2023-01-29T00:53:56;1.65;;;1.65;;
28086;SDS011;15392;48.912;8.380;2023-01-29T00:56:25;2.00;;;1.90;;
28086;SDS011;15392;48.912;8.380;2023-01-29T00:58:53;3.20;;;3.10;;
28086;SDS011;15392;48.912;8.380;2023-01-29T01:01:19;3.10;;;3.00;;
28086;SDS011;15392;48.912;8.380;2023-01-29T01:04:07;3.83;;;3.63;;
28086;SDS011;15392;48.912;8.380;2023-01-29T01:06:36;3.50;;;3.30;;
28086;SDS011;15392;48.912;8.380;2023-01-29T01:09:04;2.70;;;2.60;;
28086;SDS011;15392;48.912;8.380;2023-01-29T01:11:48;2.17;;;2.08;;
28086;SDS011;15392;48.912;8.380;2023-01-29T01:14:15;2.28;;;2.17;;
28086;SDS011;15392;48.912;8.380;2023-01-29T01:16:43;3.80;;;3.63;;
28086;SDS011;15392;48.912;8.380;2023-01-29T01:19:10;4.97;;;4.70;;
28086;SDS011;15392;48.912;8.380;2023-01-29T01:21:37;3.90;;;3.70;;
28086;SDS011;15392;48.912;8.380;2023-01-29T01:24:04;3.67;;;3.47;;
28086;SDS011;15392;48.912;8.380;2023-01-29T01:26:31;2.88;;;2.78;;
28086;SDS011;15392;48.912;8.380;2023-01-29T01:28:57;2.40;;;2.30;;
28086;SDS011;15392;48.912;8.380;2023-01-29T01:31:23;1.90;;;1.80;;
28086;SDS011;15392;48.912;8.380;2023-01-29T01:33:49;1.70;;;1.70;;
28086;SDS011;15392;48.912;8.380;2023-01-29T01:36:15;2.10;;;2.00;;
28086;SDS011;15392;48.912;8.380;2023-01-29T01:38:42;2.22;;;2.13;;
28086;SDS011;15392;48.912;8.380;2023-01-29T01:41:18;2.05;;;1.95;;
28086;SDS011;15392;48.912;8.380;2023-01-29T01:43:48;1.63;;;1.63;;
28086;SDS011;15392;48.912;8.380;2023-01-29T01:46:19;1.70;;;1.70;;
28086;SDS011;15392;48.912;8.380;2023-01-29T01:48:46;1.48;;;1.48;;
28086;SDS011;15392;48.912;8.380;2023-01-29T01:51:35;1.80;;;1.70;;
28086;SDS011;15392;48.912;8.380;2023-01-29T01:54:08;1.90;;;1.80;;
28086;SDS011;15392;48.912;8.380;2023-01-29T01:56:42;1.70;;;1.70;;
28086;SDS011;15392;48.912;8.380;2023-01-29T01:59:15;2.00;;;1.95;;
28086;SDS011;15392;48.912;8.380;2023-01-29T02:01:43;1.70;;;1.70;;
28086;SDS011;15392;48.912;8.380;2023-01-29T02:04:18;1.85;;;1.85;;
28086;SDS011;15392;48.912;8.380;2023-01-29T02:07:06;1.70;;;1.70;;
28086;SDS011;15392;48.912;8.380;2023-01-29T02:10:04;1.67;;;1.67;;
28086;SDS011;15392;48.912;8.380;2023-01-29T02:12:38;1.58;;;1.58;;
28086;SDS011;15392;48.912;8.380;2023-01-29T02:15:05;1.45;;;1.45;;
28086;SDS011;15392;48.912;8.380;2023-01-29T02:17:32;1.77;;;1.77;;
28086;SDS011;15392;48.912;8.380;2023-01-29T02:20:17;2.00;;;1.90;;
28086;SDS011;15392;48.912;8.380;2023-01-29T02:32:30;1.52;;;1.52;;
28086;SDS011;15392;48.912;8.380;2023-01-29T02:44:16;1.45;;;1.45;;
28086;SDS011;15392;48.912;8.380;2023-01-29T02:50:02;1.42;;;1.42;;
28086;SDS011;15392;48.912;8.380;2023-01-29T02:52:35;1.63;;;1.63;;
28086;SDS011;15392;48.912;8.380;2023-01-29T02:55:20;1.48;;;1.48;;
28086;SDS011;15392;48.912;8.380;2023-01-29T02:58:10;1.63;;;1.63;;
28086;SDS011;15392;48.912;8.380;2023-01-29T03:00:44;1.55;;;1.55;;
28086;SDS011;15392;48.912;8.380;2023-01-29T03:03:55;1.50;;;1.50;;
28086;SDS011;15392;48.912;8.380;2023-01-29T03:06:32;1.95;;;1.85;;
28086;SDS011;15392;48.912;8.380;2023-01-29T03:09:04;1.77;;;1.77;;
28086;SDS011;15392;48.912;8.380;2023-01-29T03:11:43;1.50;;;1.50;;
28086;SDS011;15392;48.912;8.380;2023-01-29T03:14:15;1.92;;;1.85;;
28086;SDS011;15392;48.912;8.380;2023-01-29T03:16:50;1.67;;;1.63;;
28086;SDS011;15392;48.912;8.380;2023-01-29T03:19:32;1.58;;;1.58;;
28086;SDS011;15392;48.912;8.380;2023-01-29T03:22:04;1.80;;;1.70;;
28086;SDS011;15392;48.912;8.380;2023-01-29T03:27:47;1.50;;;1.50;;
28086;SDS011;15392;48.912;8.380;2023-01-29T03:30:40;1.60;;;1.50;;
28086;SDS011;15392;48.912;8.380;2023-01-29T03:33:34;1.42;;;1.42;;
28086;SDS011;15392;48.912;8.380;2023-01-29T03:36:29;1.50;;;1.50;;
28086;SDS011;15392;48.912;8.380;2023-01-29T03:39:27;1.50;;;1.50;;
28086;SDS011;15392;48.912;8.380;2023-01-29T03:41:58;1.38;;;1.38;;
28086;SDS011;15392;48.912;8.380;2023-01-29T03:47:40;1.63;;;1.63;;
28086;SDS011;15392;48.912;8.380;2023-01-29T03:50:30;1.77;;;1.67;;
28086;SDS011;15392;48.912;8.380;2023-01-29T03:53:03;1.45;;;1.45;;
28086;SDS011;15392;48.912;8.380;2023-01-29T04:01:53;1.52;;;1.52;;
28086;SDS011;15392;48.912;8.380;2023-01-29T04:04:23;1.37;;;1.37;;
28086;SDS011;15392;48.912;8.380;2023-01-29T04:06:55;1.42;;;1.42;;
28086;SDS011;15392;48.912;8.380;2023-01-29T04:09:30;1.60;;;1.60;;
28086;SDS011;15392;48.912;8.380;2023-01-29T04:12:25;1.73;;;1.63;;
28086;SDS011;15392;48.912;8.380;2023-01-29T04:14:56;1.77;;;1.67;;
28086;SDS011;15392;48.912;8.380;2023-01-29T04:17:30;1.98;;;1.80;;
28086;SDS011;15392;48.912;8.380;2023-01-29T04:20:03;1.90;;;1.90;;
28086;SDS011;15392;48.912;8.380;2023-01-29T04:22:33;1.80;;;1.70;;
28086;SDS011;15392;48.912;8.380;2023-01-29T04:25:03;1.73;;;1.70;;
28086;SDS011;15392;48.912;8.380;2023-01-29T04:30:39;1.73;;;1.73;;
28086;SDS011;15392;48.912;8.380;2023-01-29T04:36:20;1.43;;;1.43;;
28086;SDS011;15392;48.912;8.380;2023-01-29T04:39:10;1.60;;;1.60;;
28086;SDS011;15392;48.912;8.380;2023-01-29T04:44:48;1.80;;;1.80;;
28086;SDS011;15392;48.912;8.380;2023-01-29T04:47:27;1.70;;;1.70;;
28086;SDS011;15392;48.912;8.380;2023-01-29T04:50:38;1.77;;;1.75;;
28086;SDS011;15392;48.912;8.380;2023-01-29T04:53:25;1.90;;;1.90;;
28086;SDS011;15392;48.912;8.380;2023-01-29T04:56:41;2.28;;;2.17;;
28086;SDS011;15392;48.912;8.380;2023-01-29T04:59:11;1.52;;;1.52;;
28086;SDS011;15392;48.912;8.380;2023-01-29T05:01:44;1.73;;;1.73;;
28086;SDS011;15392;48.912;8.380;2023-01-29T05:04:12;1.85;;;1.85;;
28086;SDS011;15392;48.912;8.380;2023-01-29T05:06:40;2.17;;;2.08;;
28086;SDS011;15392;48.912;8.380;2023-01-29T05:09:10;2.08;;;1.98;;
28086;SDS011;15392;48.912;8.380;2023-01-29T05:11:39;2.08;;;1.98;;
28086;SDS011;15392;48.912;8.380;2023-01-29T05:14:05;2.03;;;2.00;;
28086;SDS011;15392;48.912;8.380;2023-01-29T05:16:40;1.58;;;1.58;;
28086;SDS011;15392;48.912;8.380;2023-01-29T05:19:10;1.70;;;1.70;;
28086;SDS011;15392;48.912;8.380;2023-01-29T05:21:39;1.60;;;1.60;;
28086;SDS011;15392;48.912;8.380;2023-01-29T05:24:12;2.15;;;2.05;;
28086;SDS011;15392;48.912;8.380;2023-01-29T05:26:45;1.80;;;1.80;;
28086;SDS011;15392;48.912;8.380;2023-01-29T05:29:31;1.88;;;1.77;;
28086;SDS011;15392;48.912;8.380;2023-01-29T05:31:57;1.83;;;1.73;;
28086;SDS011;15392;48.912;8.380;2023-01-29T05:34:23;2.05;;;2.05;;
28086;SDS011;15392;48.912;8.380;2023-01-29T05:36:49;1.85;;;1.85;;
28086;SDS011;15392;48.912;8.380;2023-01-29T05:39:15;2.00;;;2.00;;
28086;SDS011;15392;48.912;8.380;2023-01-29T05:41:41;1.98;;;1.90;;
28086;SDS011;15392;48.912;8.380;2023-01-29T05:44:11;1.92;;;1.83;;
28086;SDS011;15392;48.912;8.380;2023-01-29T05:46:37;1.85;;;1.85;;
28086;SDS011;15392;48.912;8.380;2023-01-29T05:49:03;2.15;;;2.05;;
28086;SDS011;15392;48.912;8.380;2023-01-29T05:51:29;2.40;;;2.30;;
28086;SDS011;15392;48.912;8.380;2023-01-29T05:53:55;3.05;;;2.95;;
28086;SDS011;15392;48.912;8.380;2023-01-29T05:56:21;3.28;;;3.17;;
28086;SDS011;15392;48.912;8.380;2023-01-29T05:58:47;2.85;;;2.75;;
28086;SDS011;15392;48.912;8.380;2023-01-29T06:03:44;2.50;;;2.40;;
28086;SDS011;15392;48.912;8.380;2023-01-29T06:06:11;2.38;;;2.28;;
28086;SDS011;15392;48.912;8.380;2023-01-29T06:08:37;2.50;;;2.40;;
28086;SDS011;15392;48.912;8.380;2023-01-29T06:11:05;2.00;;;1.90;;
28086;SDS011;15392;48.912;8.380;2023-01-29T06:15:59;2.20;;;2.15;;
28086;SDS011;15392;48.912;8.380;2023-01-29T06:18:25;2.08;;;1.98;;
28086;SDS011;15392;48.912;8.380;2023-01-29T06:20:50;2.35;;;2.25;;
28086;SDS011;15392;48.912;8.380;2023-01-29T06:23:16;2.53;;;2.42;;
28086;SDS011;15392;48.912;8.380;2023-01-29T06:25:42;2.17;;;2.08;;
28086;SDS011;15392;48.912;8.380;2023-01-29T06:28:07;2.50;;;2.40;;
28086;SDS011;15392;48.912;8.380;2023-01-29T06:30:33;2.22;;;2.13;;
28086;SDS011;15392;48.912;8.380;2023-01-29T06:32:59;1.92;;;1.92;;
28086;SDS011;15392;48.912;8.380;2023-01-29T06:35:28;2.53;;;2.42;;
28086;SDS011;15392;48.912;8.380;2023-01-29T06:37:53;2.08;;;1.98;;
28086;SDS011;15392;48.912;8.380;2023-01-29T06:40:20;2.35;;;2.25;;
28086;SDS011;15392;48.912;8.380;2023-01-29T06:42:46;2.42;;;2.33;;
28086;SDS011;15392;48.912;8.380;2023-01-29T06:45:12;2.65;;;2.55;;
28086;SDS011;15392;48.912;8.380;2023-01-29T06:47:38;2.20;;;2.10;;
28086;SDS011;15392;48.912;8.380;2023-01-29T06:50:03;2.40;;;2.30;;
28086;SDS011;15392;48.912;8.380;2023-01-29T06:52:30;2.45;;;2.35;;
28086;SDS011;15392;48.912;8.380;2023-01-29T06:54:55;2.38;;;2.28;;
28086;SDS011;15392;48.912;8.380;2023-01-29T06:57:21;2.15;;;2.15;;
28086;SDS011;15392;48.912;8.380;2023-01-29T06:59:47;2.03;;;1.95;;
28086;SDS011;15392;48.912;8.380;2023-01-29T07:02:13;2.25;;;2.15;;
28086;SDS011;15392;48.912;8.380;2023-01-29T07:04:39;2.72;;;2.63;;
28086;SDS011;15392;48.912;8.380;2023-01-29T07:07:08;2.38;;;2.28;;
28086;SDS011;15392;48.912;8.380;2023-01-29T07:09:39;2.47;;;2.38;;
28086;SDS011;15392;48.912;8.380;2023-01-29T07:12:06;2.20;;;2.10;;
28086;SDS011;15392;48.912;8.380;2023-01-29T07:14:33;2.33;;;2.22;;
28086;SDS011;15392;48.912;8.380;2023-01-29T07:16:59;2.28;;;2.17;;
28086;SDS011;15392;48.912;8.380;2023-01-29T07:19:25;2.38;;;2.28;;
28086;SDS011;15392;48.912;8.380;2023-01-29T07:21:50;2.47;;;2.38;;
28086;SDS011;15392;48.912;8.380;2023-01-29T07:24:16;2.70;;;2.60;;
28086;SDS011;15392;48.912;8.380;2023-01-29T07:26:43;2.30;;;2.20;;
28086;SDS011;15392;48.912;8.380;2023-01-29T07:29:09;2.30;;;2.20;;
28086;SDS011;15392;48.912;8.380;2023-01-29T07:31:35;2.47;;;2.38;;
28086;SDS011;15392;48.912;8.380;2023-01-29T07:34:01;2.20;;;2.10;;
28086;SDS011;15392;48.912;8.380;2023-01-29T07:36:27;1.98;;;1.90;;
28086;SDS011;15392;48.912;8.380;2023-01-29T07:38:53;2.33;;;2.22;;
28086;SDS011;15392;48.912;8.380;2023-01-29T07:41:19;2.05;;;1.95;;
28086;SDS011;15392;48.912;8.380;2023-01-29T07:43:45;2.50;;;2.40;;
28086;SDS011;15392;48.912;8.380;2023-01-29T07:46:12;2.30;;;2.20;;
28086;SDS011;15392;48.912;8.380;2023-01-29T07:48:37;2.15;;;2.08;;
28086;SDS011;15392;48.912;8.380;2023-01-29T07:51:03;2.05;;;2.05;;
28086;SDS011;15392;48.912;8.380;2023-01-29T07:53:29;2.17;;;2.10;;
28086;SDS011;15392;48.912;8.380;2023-01-29T07:55:55;2.30;;;2.20;;
28086;SDS011;15392;48.912;8.380;2023-01-29T07:58:21;2.15;;;2.05;;
28086;SDS011;15392;48.912;8.380;2023-01-29T08:00:47;2.30;;;2.20;;
28086;SDS011;15392;48.912;8.380;2023-01-29T08:03:14;2.15;;;2.05;;
28086;SDS011;15392;48.912;8.380;2023-01-29T08:05:44;2.13;;;2.03;;
28086;SDS011;15392;48.912;8.380;2023-01-29T08:08:11;2.42;;;2.33;;
28086;SDS011;15392;48.912;8.380;2023-01-29T08:10:37;2.50;;;2.40;;
28086;SDS011;15392;48.912;8.380;2023-01-29T08:13:04;2.50;;;2.40;;
28086;SDS011;15392;48.912;8.380;2023-01-29T08:15:31;2.10;;;2.00;;
28086;SDS011;15392;48.912;8.380;2023-01-29T08:17:59;2.20;;;2.10;;
28086;SDS011;15392;48.912;8.380;2023-01-29T08:20:26;2.20;;;2.10;;
28086;SDS011;15392;48.912;8.380;2023-01-29T08:23:03;2.22;;;2.13;;
28086;SDS011;15392;48.912;8.380;2023-01-29T08:25:32;1.87;;;1.83;;
28086;SDS011;15392;48.912;8.380;2023-01-29T08:27:58;2.50;;;2.40;;
28086;SDS011;15392;48.912;8.380;2023-01-29T08:30:25;2.67;;;2.58;;
28086;SDS011;15392;48.912;8.380;2023-01-29T08:32:53;2.25;;;2.15;;
28086;SDS011;15392;48.912;8.380;2023-01-29T08:35:19;2.50;;;2.40;;
28086;SDS011;15392;48.912;8.380;2023-01-29T08:37:51;2.30;;;2.20;;
28086;SDS011;15392;48.912;8.380;2023-01-29T08:40:18;2.08;;;1.98;;
28086;SDS011;15392;48.912;8.380;2023-01-29T08:42:44;2.10;;;2.05;;
28086;SDS011;15392;48.912;8.380;2023-01-29T08:45:10;2.53;;;2.42;;
28086;SDS011;15392;48.912;8.380;2023-01-29T08:47:35;2.25;;;2.17;;
28086;SDS011;15392;48.912;8.380;2023-01-29T08:50:01;2.25;;;2.15;;
28086;SDS011;15392;48.912;8.380;2023-01-29T08:52:27;2.20;;;2.10;;
28086;SDS011;15392;48.912;8.380;2023-01-29T08:54:53;2.13;;;2.08;;
28086;SDS011;15392;48.912;8.380;2023-01-29T08:57:19;2.15;;;2.10;;
28086;SDS011;15392;48.912;8.380;2023-01-29T08:59:45;2.17;;;2.10;;
28086;SDS011;15392;48.912;8.380;2023-01-29T09:02:11;2.28;;;2.25;;
28086;SDS011;15392;48.912;8.380;2023-01-29T09:04:36;1.88;;;1.88;;
28086;SDS011;15392;48.912;8.380;2023-01-29T09:07:02;1.88;;;1.88;;
28086;SDS011;15392;48.912;8.380;2023-01-29T09:09:28;2.22;;;2.13;;
28086;SDS011;15392;48.912;8.380;2023-01-29T09:11:53;1.90;;;1.80;;
28086;SDS011;15392;48.912;8.380;2023-01-29T09:14:19;1.60;;;1.60;;
28086;SDS011;15392;48.912;8.380;2023-01-29T09:16:45;2.60;;;2.50;;
28086;SDS011;15392;48.912;8.380;2023-01-29T09:19:10;2.13;;;2.05;;
28086;SDS011;15392;48.912;8.380;2023-01-29T09:21:36;2.15;;;2.05;;
28086;SDS011;15392;48.912;8.380;2023-01-29T09:24:02;1.92;;;1.92;;
28086;SDS011;15392;48.912;8.380;2023-01-29T09:26:28;2.47;;;2.38;;
28086;SDS011;15392;48.912;8.380;2023-01-29T09:28:54;2.50;;;2.40;;
28086;SDS011;15392;48.912;8.380;2023-01-29T09:31:19;2.30;;;2.20;;
28086;SDS011;15392;48.912;8.380;2023-01-29T09:33:45;2.28;;;2.17;;
28086;SDS011;15392;48.912;8.380;2023-01-29T09:36:11;2.05;;;2.05;;
28086;SDS011;15392;48.912;8.380;2023-01-29T09:38:36;2.03;;;2.03;;
28086;SDS011;15392;48.912;8.380;2023-01-29T09:47:23;1.83;;;1.80;;
28086;SDS011;15392;48.912;8.380;2023-01-29T09:49:52;1.73;;;1.73;;
28086;SDS011;15392;48.912;8.380;2023-01-29T09:52:52;1.40;;;1.40;;
28086;SDS011;15392;48.912;8.380;2023-01-29T09:58:01;1.85;;;1.85;;
28086;SDS011;15392;48.912;8.380;2023-01-29T10:03:09;1.92;;;1.85;;
28086;SDS011;15392;48.912;8.380;2023-01-29T10:11:42;1.65;;;1.55;;
28086;SDS011;15392;48.912;8.380;2023-01-29T10:14:39;1.50;;;1.50;;
28086;SDS011;15392;48.912;8.380;2023-01-29T10:23:20;1.90;;;1.80;;
28086;SDS011;15392;48.912;8.380;2023-01-29T10:25:58;1.70;;;1.60;;
28086;SDS011;15392;48.912;8.380;2023-01-29T10:28:36;1.73;;;1.73;;
28086;SDS011;15392;48.912;8.380;2023-01-29T10:31:32;1.88;;;1.80;;
28086;SDS011;15392;48.912;8.380;2023-01-29T10:34:13;1.30;;;1.30;;
28086;SDS011;15392;48.912;8.380;2023-01-29T10:36:52;1.65;;;1.65;;
28086;SDS011;15392;48.912;8.380;2023-01-29T10:39:24;1.63;;;1.63;;
28086;SDS011;15392;48.912;8.380;2023-01-29T10:42:01;1.63;;;1.63;;
28086;SDS011;15392;48.912;8.380;2023-01-29T10:50:42;1.33;;;1.33;;
28086;SDS011;15392;48.912;8.380;2023-01-29T10:58:59;1.45;;;1.45;;
28086;SDS011;15392;48.912;8.380;2023-01-29T11:01:31;2.28;;;2.17;;
28086;SDS011;15392;48.912;8.380;2023-01-29T11:04:01;1.77;;;1.77;;
28086;SDS011;15392;48.912;8.380;2023-01-29T11:06:30;1.80;;;1.80;;
28086;SDS011;15392;48.912;8.380;2023-01-29T11:14:39;1.30;;;1.30;;
28086;SDS011;15392;48.912;8.380;2023-01-29T11:17:14;1.40;;;1.40;;
28086;SDS011;15392;48.912;8.380;2023-01-29T11:19:46;1.42;;;1.40;;
28086;SDS011;15392;48.912;8.380;2023-01-29T11:22:16;1.47;;;1.47;;
28086;SDS011;15392;48.912;8.380;2023-01-29T11:25:07;1.55;;;1.55;;
28086;SDS011;15392;48.912;8.380;2023-01-29T11:30:36;1.90;;;1.80;;
28086;SDS011;15392;48.912;8.380;2023-01-29T11:35:29;1.67;;;1.65;;
28086;SDS011;15392;48.912;8.380;2023-01-29T11:38:07;1.88;;;1.77;;
28086;SDS011;15392;48.912;8.380;2023-01-29T11:40:44;1.42;;;1.42;;
28086;SDS011;15392;48.912;8.380;2023-01-29T11:43:20;1.50;;;1.50;;
28086;SDS011;15392;48.912;8.380;2023-01-29T11:45:53;1.70;;;1.60;;
28086;SDS011;15392;48.912;8.380;2023-01-29T11:48:31;1.38;;;1.38;;
28086;SDS011;15392;48.912;8.380;2023-01-29T11:51:07;1.33;;;1.33;;
28086;SDS011;15392;48.912;8.380;2023-01-29T11:53:36;1.30;;;1.30;;
28086;SDS011;15392;48.912;8.380;2023-01-29T11:56:28;1.75;;;1.67;;
28086;SDS011;15392;48.912;8.380;2023-01-29T11:59:19;1.60;;;1.50;;
28086;SDS011;15392;48.912;8.380;2023-01-29T12:02:12;1.30;;;1.30;;
28086;SDS011;15392;48.912;8.380;2023-01-29T12:04:47;2.92;;;2.83;;
28086;SDS011;15392;48.912;8.380;2023-01-29T12:07:14;2.45;;;2.35;;
28086;SDS011;15392;48.912;8.380;2023-01-29T12:09:47;2.25;;;2.15;;
28086;SDS011;15392;48.912;8.380;2023-01-29T12:12:25;2.15;;;2.05;;
28086;SDS011;15392;48.912;8.380;2023-01-29T12:15:03;2.70;;;2.60;;
28086;SDS011;15392;48.912;8.380;2023-01-29T12:17:34;2.03;;;2.00;;
28086;SDS011;15392;48.912;8.380;2023-01-29T12:20:10;5.70;;;5.43;;
28086;SDS011;15392;48.912;8.380;2023-01-29T12:39:16;1.73;;;1.73;;
28086;SDS011;15392;48.912;8.380;2023-01-29T12:41:49;2.15;;;2.08;;
28086;SDS011;15392;48.912;8.380;2023-01-29T12:46:53;2.25;;;2.15;;
28086;SDS011;15392;48.912;8.380;2023-01-29T12:49:24;2.00;;;2.00;;
28086;SDS011;15392;48.912;8.380;2023-01-29T12:51:57;1.90;;;1.90;;
28086;SDS011;15392;48.912;8.380;2023-01-29T12:54:35;2.20;;;2.10;;
28086;SDS011;15392;48.912;8.380;2023-01-29T12:57:31;2.30;;;2.20;;
28086;SDS011;15392;48.912;8.380;2023-01-29T13:00:04;2.10;;;2.00;;
28086;SDS011;15392;48.912;8.380;2023-01-29T13:08:25;1.90;;;1.90;;
28086;SDS011;15392;48.912;8.380;2023-01-29T13:11:00;1.98;;;1.98;;
28086;SDS011;15392;48.912;8.380;2023-01-29T13:13:37;2.20;;;2.10;;
28086;SDS011;15392;48.912;8.380;2023-01-29T13:16:17;2.40;;;2.30;;
28086;SDS011;15392;48.912;8.380;2023-01-29T13:18:57;1.80;;;1.80;;
28086;SDS011;15392;48.912;8.380;2023-01-29T13:21:32;1.98;;;1.88;;
28086;SDS011;15392;48.912;8.380;2023-01-29T13:24:08;1.42;;;1.42;;
28086;SDS011;15392;48.912;8.380;2023-01-29T13:26:39;1.55;;;1.55;;
28086;SDS011;15392;48.912;8.380;2023-01-29T13:29:16;1.80;;;1.80;;
28086;SDS011;15392;48.912;8.380;2023-01-29T13:32:00;1.60;;;1.60;;
28086;SDS011;15392;48.912;8.380;2023-01-29T13:34:31;1.60;;;1.60;;
28086;SDS011;15392;48.912;8.380;2023-01-29T13:37:11;1.75;;;1.75;;
28086;SDS011;15392;48.912;8.380;2023-01-29T13:40:05;2.03;;;1.92;;
28086;SDS011;15392;48.912;8.380;2023-01-29T13:42:43;1.55;;;1.55;;
28086;SDS011;15392;48.912;8.380;2023-01-29T13:45:19;1.63;;;1.63;;
28086;SDS011;15392;48.912;8.380;2023-01-29T13:50:51;2.15;;;2.05;;
28086;SDS011;15392;48.912;8.380;2023-01-29T13:53:21;1.70;;;1.70;;
28086;SDS011;15392;48.912;8.380;2023-01-29T13:55:49;2.05;;;1.98;;
28086;SDS011;15392;48.912;8.380;2023-01-29T13:58:16;2.10;;;2.00;;
28086;SDS011;15392;48.912;8.380;2023-01-29T14:00:58;2.00;;;2.00;;
28086;SDS011;15392;48.912;8.380;2023-01-29T14:13:37;1.83;;;1.80;;
28086;SDS011;15392;48.912;8.380;2023-01-29T14:18:29;1.80;;;1.80;;
28086;SDS011;15392;48.912;8.380;2023-01-29T14:20:59;1.90;;;1.90;;
28086;SDS011;15392;48.912;8.380;2023-01-29T14:23:54;5.43;;;5.13;;
28086;SDS011;15392;48.912;8.380;2023-01-29T14:31:40;2.70;;;2.60;;
28086;SDS011;15392;48.912;8.380;2023-01-29T14:34:27;2.35;;;2.25;;
28086;SDS011;15392;48.912;8.380;2023-01-29T14:37:01;2.63;;;2.53;;
28086;SDS011;15392;48.912;8.380;2023-01-29T14:39:49;2.28;;;2.17;;
28086;SDS011;15392;48.912;8.380;2023-01-29T14:42:46;2.20;;;2.10;;
28086;SDS011;15392;48.912;8.380;2023-01-29T14:53:05;1.90;;;1.90;;
28086;SDS011;15392;48.912;8.380;2023-01-29T14:59:22;2.08;;;2.08;;
28086;SDS011;15392;48.912;8.380;2023-01-29T15:01:38;2.30;;;2.20;;
28086;SDS011;15392;48.912;8.380;2023-01-29T15:04:25;1.80;;;1.80;;
28086;SDS011;15392;48.912;8.380;2023-01-29T15:12:02;1.90;;;1.90;;
28086;SDS011;15392;48.912;8.380;2023-01-29T15:20:39;2.13;;;2.03;;
28086;SDS011;15392;48.912;8.380;2023-01-29T15:23:03;1.83;;;1.83;;
28086;SDS011;15392;48.912;8.380;2023-01-29T15:25:51;2.10;;;2.10;;
28086;SDS011;15392;48.912;8.380;2023-01-29T15:28:20;2.70;;;2.60;;
28086;SDS011;15392;48.912;8.380;2023-01-29T15:30:50;3.50;;;3.40;;
28086;SDS011;15392;48.912;8.380;2023-01-29T15:33:19;2.72;;;2.63;;
28086;SDS011;15392;48.912;8.380;2023-01-29T15:35:45;2.40;;;2.30;;
28086;SDS011;15392;48.912;8.380;2023-01-29T15:38:16;2.40;;;2.30;;
28086;SDS011;15392;48.912;8.380;2023-01-29T15:40:52;2.33;;;2.22;;
28086;SDS011;15392;48.912;8.380;2023-01-29T15:43:33;2.30;;;2.20;;
28086;SDS011;15392;48.912;8.380;2023-01-29T15:49:04;2.45;;;2.35;;
28086;SDS011;15392;48.912;8.380;2023-01-29T15:51:33;2.42;;;2.33;;
28086;SDS011;15392;48.912;8.380;2023-01-29T15:54:00;2.40;;;2.30;;
28086;SDS011;15392;48.912;8.380;2023-01-29T15:56:32;2.55;;;2.45;;
28086;SDS011;15392;48.912;8.380;2023-01-29T15:59:05;2.80;;;2.70;;
28086;SDS011;15392;48.912;8.380;2023-01-29T16:01:33;2.70;;;2.60;;
28086;SDS011;15392;48.912;8.380;2023-01-29T16:03:59;2.70;;;2.60;;
28086;SDS011;15392;48.912;8.380;2023-01-29T16:06:26;3.63;;;3.53;;
28086;SDS011;15392;48.912;8.380;2023-01-29T16:09:04;7.80;;;7.30;;
28086;SDS011;15392;48.912;8.380;2023-01-29T16:11:32;10.85;;;9.88;;
28086;SDS011;15392;48.912;8.380;2023-01-29T16:14:01;9.23;;;8.52;;
28086;SDS011;15392;48.912;8.380;2023-01-29T16:16:28;7.32;;;6.82;;
28086;SDS011;15392;48.912;8.380;2023-01-29T16:18:54;6.78;;;6.38;;
28086;SDS011;15392;48.912;8.380;2023-01-29T16:21:24;10.05;;;9.25;;
28086;SDS011;15392;48.912;8.380;2023-01-29T16:26:26;18.65;;;16.90;;
28086;SDS011;15392;48.912;8.380;2023-01-29T16:29:03;18.42;;;16.83;;
28086;SDS011;15392;48.912;8.380;2023-01-29T16:31:32;11.57;;;10.77;;
28086;SDS011;15392;48.912;8.380;2023-01-29T16:34:23;8.40;;;7.90;;
28086;SDS011;15392;48.912;8.380;2023-01-29T16:36:51;6.20;;;5.90;;
28086;SDS011;15392;48.912;8.380;2023-01-29T16:39:20;8.77;;;8.27;;
28086;SDS011;15392;48.912;8.380;2023-01-29T16:44:38;7.70;;;7.28;;
28086;SDS011;15392;48.912;8.380;2023-01-29T16:47:50;8.57;;;8.07;;
28086;SDS011;15392;48.912;8.380;2023-01-29T16:49:55;6.95;;;6.55;;
28086;SDS011;15392;48.912;8.380;2023-01-29T16:52:53;4.70;;;4.50;;
28086;SDS011;15392;48.912;8.380;2023-01-29T16:55:22;3.45;;;3.35;;
28086;SDS011;15392;48.912;8.380;2023-01-29T16:57:53;4.60;;;4.40;;
28086;SDS011;15392;48.912;8.380;2023-01-29T17:02:53;3.53;;;3.42;;
28086;SDS011;15392;48.912;8.380;2023-01-29T17:05:28;3.80;;;3.70;;
28086;SDS011;15392;48.912;8.380;2023-01-29T17:07:58;3.58;;;3.47;;
28086;SDS011;15392;48.912;8.380;2023-01-29T17:10:25;3.95;;;3.75;;
28086;SDS011;15392;48.912;8.380;2023-01-29T17:12:54;17.25;;;15.05;;
28086;SDS011;15392;48.912;8.380;2023-01-29T17:20:43;30.20;;;23.60;;
28086;SDS011;15392;48.912;8.380;2023-01-29T17:23:08;17.25;;;15.45;;
28086;SDS011;15392;48.912;8.380;2023-01-29T17:25:34;15.93;;;14.43;;
28086;SDS011;15392;48.912;8.380;2023-01-29T17:28:00;11.25;;;10.25;;
28086;SDS011;15392;48.912;8.380;2023-01-29T17:30:29;8.05;;;7.55;;
28086;SDS011;15392;48.912;8.380;2023-01-29T17:32:59;6.43;;;6.13;;
28086;SDS011;15392;48.912;8.380;2023-01-29T17:35:28;6.28;;;5.97;;
28086;SDS011;15392;48.912;8.380;2023-01-29T17:37:53;5.80;;;5.50;;
28086;SDS011;15392;48.912;8.380;2023-01-29T17:43:05;5.65;;;5.35;;
28086;SDS011;15392;48.912;8.380;2023-01-29T17:45:31;4.70;;;4.50;;
28086;SDS011;15392;48.912;8.380;2023-01-29T17:47:58;4.70;;;4.50;;
28086;SDS011;15392;48.912;8.380;2023-01-29T17:50:27;4.72;;;4.53;;
28086;SDS011;15392;48.912;8.380;2023-01-29T17:52:55;4.32;;;4.13;;
28086;SDS011;15392;48.912;8.380;2023-01-29T17:55:21;5.10;;;4.90;;
28086;SDS011;15392;48.912;8.380;2023-01-29T17:57:47;4.95;;;4.75;;
28086;SDS011;15392;48.912;8.380;2023-01-29T18:02:44;4.47;;;4.28;;
28086;SDS011;15392;48.912;8.380;2023-01-29T18:05:10;4.57;;;4.38;;
28086;SDS011;15392;48.912;8.380;2023-01-29T18:07:37;4.45;;;4.25;;
28086;SDS011;15392;48.912;8.380;2023-01-29T18:10:06;4.13;;;3.92;;
28086;SDS011;15392;48.912;8.380;2023-01-29T18:12:38;4.28;;;4.07;;
28086;SDS011;15392;48.912;8.380;2023-01-29T18:15:04;4.85;;;4.65;;
28086;SDS011;15392;48.912;8.380;2023-01-29T18:17:30;3.95;;;3.85;;
28086;SDS011;15392;48.912;8.380;2023-01-29T18:19:56;3.97;;;3.70;;
28086;SDS011;15392;48.912;8.380;2023-01-29T18:22:23;4.15;;;3.95;;